Time;durP1;ratioP1;P1;durP2;ratioP2;P2;SDS_P1;SDS_P2;PMS_P1;PMS_P2;Temp;Humidity;BMP_temperature;BMP_pressure;BME280_temperature;BME280_humidity;BME280_pressure;Samples;Min_cycle;Max_cycle;Signal;HPM_P1;HPM_P2
2023/05/11 00:00:35;;;;;;;8.53;4.87;;;13.40;90.00;;;;;;6157453;23;20175;-95
2023/05/11 00:03:01;;;;;;;6.93;5.00;;;13.50;88.50;;;;;;6157000;23;20177;-93
2023/05/11 00:05:28;;;;;;;9.10;4.83;;;13.50;90.00;;;;;;6156942;23;20571;-94
2023/05/11 00:07:55;;;;;;;8.33;4.50;;;13.50;90.70;;;;;;6157140;23;20173;-93
2023/05/11 00:10:22;;;;;;;6.73;4.50;;;13.60;90.60;;;;;;6157311;23;20182;-94
2023/05/11 00:12:49;;;;;;;9.57;4.90;;;13.60;92.20;;;;;;6156788;23;20186;-94
2023/05/11 00:15:16;;;;;;;8.77;5.27;;;13.60;91.80;;;;;;6157049;23;20174;-94
2023/05/11 00:17:44;;;;;;;8.57;4.87;;;13.70;91.50;;;;;;6158027;23;20232;-95
2023/05/11 00:20:11;;;;;;;11.53;4.73;;;13.70;92.40;;;;;;6158634;23;20183;-93
2023/05/11 00:22:38;;;;;;;8.37;5.10;;;13.80;93.80;;;;;;6158487;23;20204;-93
2023/05/11 00:25:06;;;;;;;6.93;4.70;;;13.80;93.50;;;;;;6158901;23;20602;-95
2023/05/11 00:27:33;;;;;;;8.07;4.93;;;13.80;94.00;;;;;;6158437;23;20260;-94
2023/05/11 00:29:59;;;;;;;10.77;5.03;;;13.80;93.40;;;;;;6159143;23;20501;-94
2023/05/11 00:32:26;;;;;;;5.83;4.70;;;13.90;92.00;;;;;;6158904;23;20173;-94
2023/05/11 00:34:54;;;;;;;7.00;5.00;;;13.90;93.30;;;;;;6158052;23;20170;-92
2023/05/11 00:37:21;;;;;;;8.43;4.77;;;13.90;92.80;;;;;;6158841;23;20349;-93
2023/05/11 00:39:48;;;;;;;8.47;4.93;;;13.90;92.90;;;;;;6158902;23;20173;-93
2023/05/11 00:42:15;;;;;;;7.47;4.90;;;13.80;93.70;;;;;;6158852;23;20183;-94
2023/05/11 00:44:43;;;;;;;9.10;5.17;;;13.80;92.90;;;;;;6158605;23;20245;-93
2023/05/11 00:47:09;;;;;;;6.27;5.20;;;13.80;94.20;;;;;;6158712;23;20180;-94
2023/05/11 00:49:36;;;;;;;7.73;5.10;;;13.80;94.00;;;;;;6157998;23;20176;-93
2023/05/11 00:52:05;;;;;;;6.63;5.10;;;13.80;94.10;;;;;;6158327;23;20174;-94
2023/05/11 00:54:32;;;;;;;7.50;4.80;;;13.80;94.90;;;;;;6158097;23;20179;-93
2023/05/11 00:56:59;;;;;;;8.27;5.40;;;13.80;93.70;;;;;;6158549;23;20171;-93
2023/05/11 00:59:25;;;;;;;8.40;5.20;;;13.70;94.30;;;;;;6158282;23;20174;-93
2023/05/11 01:01:52;;;;;;;6.23;5.00;;;13.70;94.70;;;;;;6158597;23;20678;-94
2023/05/11 01:04:19;;;;;;;7.10;5.10;;;13.70;95.40;;;;;;6158145;23;20242;-93
2023/05/11 01:06:54;;;;;;;9.37;5.50;;;13.60;96.40;;;;;;6158192;23;20197;-94
2023/05/11 01:09:34;;;;;;;6.90;5.23;;;13.50;95.70;;;;;;6158564;23;20214;-94
2023/05/11 01:12:13;;;;;;;9.83;5.23;;;13.50;96.40;;;;;;6158153;23;20155;-95
2023/05/11 01:14:45;;;;;;;12.27;5.47;;;13.40;96.30;;;;;;6158692;23;20156;-94
2023/05/11 01:17:18;;;;;;;8.40;5.63;;;13.30;96.10;;;;;;6158414;23;20215;-93
2023/05/11 01:19:52;;;;;;;7.63;5.33;;;13.30;96.50;;;;;;6158593;23;20163;-93
2023/05/11 01:22:33;;;;;;;9.10;5.37;;;13.20;96.90;;;;;;6158096;23;20197;-93
2023/05/11 01:25:27;;;;;;;6.80;5.00;;;13.10;97.30;;;;;;6158073;23;20176;-93
2023/05/11 01:28:15;;;;;;;8.63;5.30;;;13.00;97.40;;;;;;6157916;23;20160;-93
2023/05/11 01:30:49;;;;;;;7.67;5.57;;;12.90;97.70;;;;;;6158179;23;20161;-93
2023/05/11 01:33:18;;;;;;;8.53;4.97;;;12.80;98.10;;;;;;6158122;23;20160;-93
2023/05/11 01:35:51;;;;;;;8.37;5.40;;;12.70;98.90;;;;;;6158263;23;20172;-94
2023/05/11 01:38:21;;;;;;;8.97;6.20;;;12.60;99.90;;;;;;6158113;23;20154;-92
2023/05/11 01:40:54;;;;;;;9.17;5.70;;;12.60;99.90;;;;;;6158065;23;20598;-93
2023/05/11 01:43:25;;;;;;;8.80;5.07;;;12.40;1.00;;;;;;6158492;23;20179;-94
2023/05/11 01:45:56;;;;;;;7.93;5.60;;;12.70;1.00;;;;;;6157692;23;20191;-92
2023/05/11 01:48:25;;;;;;;8.20;5.53;;;12.50;1.00;;;;;;6157844;23;20156;-94
2023/05/11 01:50:53;;;;;;;8.70;5.67;;;12.40;92.50;;;;;;6158005;23;20181;-94
2023/05/11 01:53:22;;;;;;;12.10;5.70;;;12.50;99.90;;;;;;6158202;23;20259;-94
2023/05/11 01:55:51;;;;;;;8.17;6.00;;;12.40;99.90;;;;;;6158123;23;20486;-93
2023/05/11 01:58:19;;;;;;;9.43;5.77;;;12.30;99.90;;;;;;6157986;23;20258;-94
2023/05/11 02:00:47;;;;;;;8.50;5.43;;;12.30;99.90;;;;;;6157589;23;20647;-94
2023/05/11 02:03:16;;;;;;;9.60;6.00;;;12.30;99.90;;;;;;6157695;23;20512;-94
2023/05/11 02:05:43;;;;;;;8.97;5.90;;;12.30;99.90;;;;;;6158190;23;20198;-93
2023/05/11 02:08:12;;;;;;;8.30;5.47;;;12.20;99.90;;;;;;6157980;23;20178;-94
2023/05/11 02:10:41;;;;;;;10.17;5.90;;;12.20;99.90;;;;;;6158003;23;20171;-93
2023/05/11 02:13:09;;;;;;;9.33;5.90;;;12.20;99.90;;;;;;6157746;23;20193;-93
2023/05/11 02:15:40;;;;;;;8.63;5.70;;;12.20;99.90;;;;;;6157887;23;20166;-93
2023/05/11 02:18:11;;;;;;;8.60;5.97;;;12.20;99.90;;;;;;6157405;23;20196;-93
2023/05/11 02:20:40;;;;;;;10.53;5.50;;;12.10;99.90;;;;;;6157615;23;20158;-93
2023/05/11 02:23:08;;;;;;;7.47;5.60;;;12.10;99.90;;;;;;6157837;23;20154;-93
2023/05/11 02:25:36;;;;;;;9.30;5.70;;;12.10;99.90;;;;;;6157375;23;20735;-92
2023/05/11 02:28:04;;;;;;;8.10;5.70;;;12.00;99.90;;;;;;6157091;23;20181;-92
2023/05/11 02:30:32;;;;;;;9.90;5.80;;;11.90;99.90;;;;;;6157251;23;20171;-92
2023/05/11 02:33:06;;;;;;;10.20;6.10;;;11.90;99.90;;;;;;6157860;23;20626;-93
2023/05/11 02:35:36;;;;;;;9.53;5.77;;;11.80;99.90;;;;;;6157513;23;20163;-92
2023/05/11 02:38:06;;;;;;;9.57;6.33;;;11.70;99.90;;;;;;6157560;23;20161;-92
2023/05/11 02:40:34;;;;;;;8.23;5.90;;;11.70;99.90;;;;;;6157328;23;20177;-93
2023/05/11 02:43:08;;;;;;;8.63;6.17;;;11.60;99.90;;;;;;6157510;23;20568;-93
2023/05/11 02:45:36;;;;;;;10.80;6.03;;;11.60;99.90;;;;;;6156690;23;20188;-93
2023/05/11 02:48:08;;;;;;;9.57;5.80;;;11.50;99.90;;;;;;6157044;23;20168;-92
2023/05/11 02:50:39;;;;;;;14.60;6.20;;;11.50;99.90;;;;;;6157393;23;20155;-94
2023/05/11 02:53:13;;;;;;;12.27;5.97;;;11.40;99.90;;;;;;6157284;23;20190;-94
2023/05/11 02:55:41;;;;;;;9.90;6.17;;;11.40;99.90;;;;;;6157565;23;20209;-92
2023/05/11 02:58:08;;;;;;;9.83;5.97;;;11.40;99.90;;;;;;6157337;23;20179;-92
2023/05/11 03:00:35;;;;;;;8.63;6.47;;;11.40;99.90;;;;;;6157187;23;20176;-92
2023/05/11 03:03:02;;;;;;;8.60;6.03;;;11.50;99.90;;;;;;6157001;23;20659;-92
2023/05/11 03:05:29;;;;;;;11.30;6.07;;;11.50;99.90;;;;;;6157346;23;20217;-92
2023/05/11 03:07:58;;;;;;;10.50;6.40;;;11.50;99.90;;;;;;6156864;23;20175;-90
2023/05/11 03:10:28;;;;;;;8.53;6.00;;;11.50;99.90;;;;;;6157371;23;20182;-92
2023/05/11 03:12:56;;;;;;;9.57;6.30;;;11.50;99.90;;;;;;6157063;23;20651;-93
2023/05/11 03:15:23;;;;;;;9.13;6.43;;;11.50;99.90;;;;;;6156652;23;20168;-93
2023/05/11 03:17:51;;;;;;;8.77;5.93;;;11.50;99.90;;;;;;6156975;23;20635;-93
2023/05/11 03:20:20;;;;;;;10.43;6.27;;;11.50;99.90;;;;;;6156889;23;20179;-92
2023/05/11 03:22:48;;;;;;;8.87;5.87;;;11.50;99.90;;;;;;6156936;23;20201;-92
2023/05/11 03:25:16;;;;;;;10.17;6.10;;;11.50;99.90;;;;;;6156754;23;20169;-90
2023/05/11 03:27:46;;;;;;;9.10;5.87;;;11.50;99.90;;;;;;6156891;23;20168;-92
2023/05/11 03:30:15;;;;;;;9.77;5.67;;;11.50;99.90;;;;;;6156958;23;20228;-92
2023/05/11 03:32:42;;;;;;;9.57;5.53;;;11.60;99.90;;;;;;6157100;23;20230;-93
2023/05/11 03:35:09;;;;;;;9.70;5.57;;;11.50;99.90;;;;;;6157189;23;20172;-93
2023/05/11 03:37:38;;;;;;;8.27;6.00;;;11.50;99.90;;;;;;6156718;23;20168;-92
2023/05/11 03:40:07;;;;;;;8.33;5.60;;;11.60;99.90;;;;;;6156705;23;20171;-92
2023/05/11 03:42:36;;;;;;;10.30;6.07;;;11.50;99.90;;;;;;6157102;23;20180;-92
2023/05/11 03:45:07;;;;;;;12.30;5.93;;;11.50;99.90;;;;;;6156937;23;20172;-92
2023/05/11 03:47:35;;;;;;;8.00;5.67;;;11.60;99.90;;;;;;6157086;23;20181;-94
2023/05/11 03:50:03;;;;;;;11.00;5.97;;;11.60;99.90;;;;;;6157088;23;20177;-94
2023/05/11 03:52:31;;;;;;;12.80;6.20;;;11.70;99.90;;;;;;6158793;23;20168;-93
2023/05/11 03:54:58;;;;;;;11.13;5.77;;;11.70;99.90;;;;;;6159216;23;20576;-92
2023/05/11 03:57:25;;;;;;;11.53;5.90;;;11.70;99.90;;;;;;6159062;23;20178;-92
2023/05/11 03:59:52;;;;;;;8.47;6.37;;;11.70;99.90;;;;;;6159206;23;20177;-94
2023/05/11 04:02:23;;;;;;;8.73;5.80;;;11.70;99.90;;;;;;6159009;23;20177;-94
2023/05/11 04:04:51;;;;;;;8.60;5.87;;;11.60;99.90;;;;;;6158746;23;20204;-94
2023/05/11 04:07:17;;;;;;;9.57;6.17;;;11.60;99.90;;;;;;6158950;23;20232;-93
2023/05/11 04:09:44;;;;;;;12.20;7.10;;;11.60;99.90;;;;;;6159218;23;20256;-94
2023/05/11 04:12:11;;;;;;;9.70;5.60;;;11.80;99.90;;;;;;6158483;23;20175;-94
2023/05/11 04:14:38;;;;;;;8.30;5.60;;;12.30;99.90;;;;;;6158868;23;20178;-94
2023/05/11 04:17:05;;;;;;;9.93;5.63;;;12.90;99.90;;;;;;6158440;23;20252;-94
2023/05/11 04:19:33;;;;;;;10.70;5.63;;;13.10;99.90;;;;;;6159211;23;20209;-93
2023/05/11 04:22:00;;;;;;;7.07;5.50;;;13.40;99.90;;;;;;6158978;23;20518;-94
2023/05/11 04:24:26;;;;;;;9.03;5.33;;;13.80;99.90;;;;;;6158718;23;20174;-93
2023/05/11 04:26:56;;;;;;;14.20;5.97;;;13.70;99.90;;;;;;6158533;23;20275;-94
2023/05/11 04:29:23;;;;;;;8.07;5.70;;;13.50;99.90;;;;;;6158840;23;20179;-94
2023/05/11 04:31:50;;;;;;;9.07;5.27;;;13.40;99.90;;;;;;6158449;23;20176;-93
2023/05/11 04:34:16;;;;;;;9.60;6.20;;;13.30;99.90;;;;;;6158639;23;20501;-92
2023/05/11 04:36:47;;;;;;;10.90;5.73;;;13.20;99.90;;;;;;6158699;23;20254;-95
2023/05/11 04:39:14;;;;;;;14.03;5.60;;;13.10;99.90;;;;;;6158250;23;20253;-92
2023/05/11 04:41:41;;;;;;;10.77;5.67;;;13.00;99.90;;;;;;6157916;23;20172;-92
2023/05/11 04:44:08;;;;;;;7.67;5.10;;;13.00;99.90;;;;;;6158457;23;20174;-93
2023/05/11 04:46:35;;;;;;;9.50;5.50;;;13.00;99.90;;;;;;6157799;23;20665;-92
2023/05/11 04:49:03;;;;;;;7.43;5.33;;;13.00;99.90;;;;;;6158116;23;20211;-93
2023/05/11 04:51:29;;;;;;;7.93;5.13;;;13.00;99.90;;;;;;6157912;23;20177;-92
2023/05/11 04:53:57;;;;;;;7.63;5.40;;;13.10;99.90;;;;;;6158128;23;20290;-93
2023/05/11 04:56:25;;;;;;;8.23;6.00;;;13.10;99.90;;;;;;6158186;23;20193;-93
2023/05/11 04:58:51;;;;;;;9.67;5.27;;;13.10;99.90;;;;;;6157953;23;20168;-94
2023/05/11 05:01:18;;;;;;;7.43;5.27;;;13.10;99.90;;;;;;6157347;23;20172;-93
2023/05/11 05:03:48;;;;;;;12.50;5.70;;;13.10;99.90;;;;;;6157956;23;20253;-94
2023/05/11 05:06:15;;;;;;;9.47;5.50;;;13.10;99.90;;;;;;6158619;23;20196;-94
2023/05/11 05:08:42;;;;;;;9.73;5.60;;;13.00;99.90;;;;;;6158525;23;20255;-94
2023/05/11 05:11:10;;;;;;;9.70;5.53;;;13.10;99.90;;;;;;6158879;23;20643;-94
2023/05/11 05:13:36;;;;;;;9.60;5.80;;;13.00;99.90;;;;;;6159024;23;20171;-92
2023/05/11 05:16:04;;;;;;;8.07;5.30;;;13.00;99.90;;;;;;6158098;23;20170;-92
2023/05/11 05:18:31;;;;;;;7.30;5.43;;;12.90;99.90;;;;;;6157876;23;20170;-91
2023/05/11 05:20:57;;;;;;;8.67;5.40;;;12.90;99.90;;;;;;6158021;23;20540;-91
2023/05/11 05:23:24;;;;;;;8.07;5.40;;;12.90;99.90;;;;;;6158298;23;20160;-92
2023/05/11 05:25:51;;;;;;;8.93;5.30;;;12.90;99.90;;;;;;6158134;23;20182;-92
2023/05/11 05:28:19;;;;;;;8.80;6.17;;;13.00;99.90;;;;;;6158265;23;20177;-93
2023/05/11 05:30:46;;;;;;;10.13;6.03;;;13.00;99.90;;;;;;6158069;23;20168;-93
2023/05/11 05:33:13;;;;;;;12.53;5.80;;;13.00;99.90;;;;;;6158315;23;20225;-93
2023/05/11 05:35:41;;;;;;;8.57;5.33;;;13.10;99.90;;;;;;6158088;23;20175;-92
2023/05/11 05:38:08;;;;;;;9.90;5.57;;;13.20;99.90;;;;;;6158365;23;20250;-93
2023/05/11 05:40:36;;;;;;;7.23;5.20;;;13.30;99.90;;;;;;6157897;23;20199;-93
2023/05/11 05:43:03;;;;;;;8.80;5.10;;;13.60;99.90;;;;;;6158540;23;20171;-94
2023/05/11 05:45:31;;;;;;;8.00;4.60;;;13.90;99.90;;;;;;6158341;23;20185;-95
2023/05/11 05:47:59;;;;;;;8.50;4.50;;;14.30;99.90;;;;;;6158179;23;20511;-93
2023/05/11 05:50:26;;;;;;;8.53;5.20;;;14.50;99.90;;;;;;6158131;23;20176;-93
2023/05/11 05:52:53;;;;;;;7.17;5.03;;;14.80;99.90;;;;;;6157963;23;20166;-93
2023/05/11 05:55:21;;;;;;;8.07;4.60;;;15.10;99.90;;;;;;6157688;23;20177;-94
2023/05/11 05:57:48;;;;;;;7.33;4.70;;;15.20;99.90;;;;;;6157864;23;20630;-94
2023/05/11 06:00:16;;;;;;;7.43;4.67;;;15.20;99.90;;;;;;6158104;23;20179;-94
2023/05/11 06:02:44;;;;;;;11.03;4.60;;;15.20;99.90;;;;;;6157955;23;20200;-93
2023/05/11 06:05:11;;;;;;;7.97;4.70;;;15.10;99.90;;;;;;6158282;23;20229;-94
2023/05/11 06:07:38;;;;;;;7.00;4.30;;;15.00;99.90;;;;;;6157911;23;20189;-93
2023/05/11 06:10:05;;;;;;;6.60;4.57;;;15.00;99.90;;;;;;6157734;23;20182;-95
2023/05/11 06:12:32;;;;;;;8.03;4.37;;;15.10;99.90;;;;;;6157801;23;20488;-94
2023/05/11 06:14:59;;;;;;;14.43;4.80;;;15.40;99.90;;;;;;6158079;23;20181;-95
2023/05/11 06:17:27;;;;;;;7.45;4.55;;;15.80;99.90;;;;;;6157951;23;20176;-95
2023/05/11 06:19:55;;;;;;;12.20;4.50;;;16.20;99.90;;;;;;6157673;23;20177;-95
2023/05/11 06:22:22;;;;;;;6.70;4.75;;;16.50;99.90;;;;;;6157783;23;20737;-94
2023/05/11 06:24:49;;;;;;;7.80;4.50;;;16.80;99.90;;;;;;6157716;23;20173;-95
2023/05/11 06:27:16;;;;;;;8.52;4.38;;;17.00;99.90;;;;;;6157450;23;20228;-95
2023/05/11 06:29:42;;;;;;;6.53;4.32;;;17.40;99.90;;;;;;6158018;23;20206;-95
2023/05/11 06:32:09;;;;;;;8.02;4.75;;;17.80;99.90;;;;;;6157894;23;20170;-94
2023/05/11 06:34:38;;;;;;;9.32;4.82;;;18.10;99.90;;;;;;6157441;23;20233;-95
2023/05/11 06:37:06;;;;;;;9.65;4.57;;;18.30;99.90;;;;;;6157212;23;20166;-96
2023/05/11 06:39:36;;;;;;;6.65;4.05;;;18.40;99.90;;;;;;6157843;23;20174;-95
2023/05/11 06:42:03;;;;;;;10.32;4.47;;;18.20;99.90;;;;;;6157445;23;20178;-95
2023/05/11 06:44:30;;;;;;;8.82;4.80;;;18.20;99.90;;;;;;6157572;23;20162;-94
2023/05/11 06:46:57;;;;;;;8.32;4.50;;;18.20;99.90;;;;;;6157208;23;20190;-95
2023/05/11 06:49:24;;;;;;;5.15;4.07;;;18.20;99.90;;;;;;6157985;23;20510;-95
2023/05/11 06:51:50;;;;;;;9.60;5.07;;;18.20;99.90;;;;;;6157472;23;20174;-95
2023/05/11 06:54:19;;;;;;;6.90;4.30;;;18.20;99.90;;;;;;6157409;23;20172;-96
2023/05/11 06:56:45;;;;;;;6.40;4.35;;;18.10;99.90;;;;;;6157635;23;20170;-95
2023/05/11 06:59:12;;;;;;;10.20;4.47;;;18.00;99.90;;;;;;6157606;23;20174;-95
2023/05/11 07:01:39;;;;;;;9.38;4.50;;;18.10;99.90;;;;;;6157702;23;20173;-96
2023/05/11 07:04:06;;;;;;;10.38;4.97;;;18.10;99.90;;;;;;6157521;23;20262;-95
2023/05/11 07:06:33;;;;;;;11.88;4.88;;;18.00;99.90;;;;;;6156989;23;20201;-94
2023/05/11 07:09:00;;;;;;;7.90;4.65;;;17.70;99.90;;;;;;6157415;23;20613;-96
2023/05/11 07:11:28;;;;;;;7.63;4.40;;;17.40;99.90;;;;;;6157460;23;20212;-94
2023/05/11 07:13:55;;;;;;;7.90;5.03;;;17.10;99.90;;;;;;6157567;23;20209;-94
2023/05/11 07:16:22;;;;;;;7.95;4.65;;;17.00;99.90;;;;;;6157091;23;20654;-95
2023/05/11 07:18:49;;;;;;;10.18;4.78;;;16.90;99.90;;;;;;6157583;23;20178;-95
2023/05/11 07:21:15;;;;;;;9.40;4.55;;;16.90;99.90;;;;;;6157023;23;20598;-95
2023/05/11 07:23:43;;;;;;;9.43;5.03;;;16.90;99.90;;;;;;6157039;23;20184;-95
2023/05/11 07:26:10;;;;;;;9.45;4.60;;;17.00;99.90;;;;;;6157133;23;20543;-95
2023/05/11 07:28:38;;;;;;;8.35;4.88;;;17.20;99.90;;;;;;6156923;23;20596;-95
2023/05/11 07:31:05;;;;;;;12.40;5.00;;;17.50;99.90;;;;;;6157220;23;20173;-95
2023/05/11 07:33:33;;;;;;;7.40;4.57;;;17.90;99.90;;;;;;6157302;23;20174;-96
2023/05/11 07:36:00;;;;;;;10.02;4.15;;;18.20;99.90;;;;;;6157321;23;20177;-95
2023/05/11 07:38:29;;;;;;;11.02;4.70;;;18.50;99.90;;;;;;6157269;23;20229;-96
2023/05/11 07:40:56;;;;;;;9.15;4.32;;;18.60;99.90;;;;;;6157308;23;20265;-94
2023/05/11 07:43:23;;;;;;;7.38;4.47;;;18.60;99.90;;;;;;6157448;23;20510;-94
2023/05/11 07:45:51;;;;;;;10.45;4.70;;;18.70;99.90;;;;;;6157287;23;20185;-95
2023/05/11 07:48:18;;;;;;;8.50;4.50;;;18.70;99.90;;;;;;6157330;23;20190;-94
2023/05/11 07:50:45;;;;;;;7.10;4.30;;;19.00;99.90;;;;;;6156770;23;20221;-94
2023/05/11 07:53:12;;;;;;;7.55;4.22;;;19.10;99.90;;;;;;6157299;23;20252;-95
2023/05/11 07:55:38;;;;;;;7.00;4.40;;;19.10;99.90;;;;;;6157102;23;20174;-94
2023/05/11 07:58:05;;;;;;;11.05;4.38;;;19.00;99.90;;;;;;6157894;23;20175;-96
2023/05/11 08:00:32;;;;;;;6.97;4.38;;;18.90;99.90;;;;;;6158843;23;20249;-96
2023/05/11 08:03:02;;;;;;;6.60;4.25;;;18.80;99.90;;;;;;6157832;23;20176;-96
2023/05/11 08:05:31;;;;;;;8.93;4.20;;;18.90;99.90;;;;;;6156783;23;20201;-96
2023/05/11 08:07:58;;;;;;;6.65;4.47;;;18.90;99.90;;;;;;6160274;23;20273;-96
2023/05/11 08:10:25;;;;;;;6.35;4.13;;;19.00;99.90;;;;;;6157601;23;20241;-96
2023/05/11 08:12:52;;;;;;;8.27;3.90;;;18.90;99.90;;;;;;6156982;23;20695;-95
2023/05/11 08:15:19;;;;;;;8.50;4.20;;;18.90;99.90;;;;;;6157257;23;20177;-96
2023/05/11 08:17:45;;;;;;;6.40;4.05;;;19.00;99.90;;;;;;6157647;23;20704;-95
2023/05/11 08:20:14;;;;;;;7.95;4.18;;;19.10;99.90;;;;;;6157591;23;20175;-96
2023/05/11 08:22:41;;;;;;;10.05;4.65;;;19.20;99.90;;;;;;6159842;23;20739;-96
2023/05/11 08:25:09;;;;;;;6.53;4.22;;;19.40;99.90;;;;;;6158595;23;20177;-96
2023/05/11 08:27:35;;;;;;;6.70;4.20;;;19.50;99.90;;;;;;6157378;23;20225;-96
2023/05/11 08:30:03;;;;;;;7.13;4.35;;;19.60;99.90;;;;;;6157529;23;20198;-95
2023/05/11 08:32:29;;;;;;;9.55;4.75;;;19.90;99.90;;;;;;6157126;23;20246;-95
2023/05/11 08:34:57;;;;;;;9.55;4.60;;;20.20;99.90;;;;;;6157665;23;20178;-96
2023/05/11 08:37:25;;;;;;;6.95;4.28;;;20.40;99.90;;;;;;6157080;23;20169;-96
2023/05/11 08:39:52;;;;;;;7.72;4.50;;;20.70;99.90;;;;;;6159767;23;20253;-94
2023/05/11 08:42:20;;;;;;;12.35;4.10;;;20.90;99.90;;;;;;6159171;23;20274;-96
2023/05/11 08:44:48;;;;;;;14.45;4.40;;;21.00;99.90;;;;;;6159595;23;20174;-96
2023/05/11 08:47:16;;;;;;;11.93;4.13;;;21.10;99.90;;;;;;6158757;23;20197;-96
2023/05/11 08:49:44;;;;;;;5.72;4.25;;;20.90;99.90;;;;;;6158927;23;20256;-96
2023/05/11 08:52:13;;;;;;;6.28;4.05;;;20.70;99.90;;;;;;6159040;23;20238;-96
2023/05/11 08:54:42;;;;;;;5.97;3.72;;;20.60;99.90;;;;;;6158743;23;20257;-96
2023/05/11 08:57:10;;;;;;;5.97;4.13;;;20.50;99.90;;;;;;6158683;23;20715;-96
2023/05/11 08:59:37;;;;;;;8.35;3.60;;;20.80;99.90;;;;;;6160012;23;20264;-96
2023/05/11 09:02:04;;;;;;;6.57;4.38;;;21.00;99.90;;;;;;6159493;23;20549;-96
2023/05/11 09:04:32;;;;;;;7.32;4.50;;;21.30;99.90;;;;;;6158642;23;20171;-96
2023/05/11 09:06:59;;;;;;;6.45;3.92;;;21.50;99.90;;;;;;6158589;23;20180;-95
2023/05/11 09:09:26;;;;;;;6.97;4.43;;;21.60;99.90;;;;;;6158397;23;20179;-96
2023/05/11 09:11:55;;;;;;;5.63;4.22;;;21.60;99.90;;;;;;6158678;23;20174;-96
2023/05/11 09:14:22;;;;;;;7.82;4.10;;;21.50;99.90;;;;;;6158698;23;20257;-95
2023/05/11 09:16:49;;;;;;;9.27;4.25;;;21.40;99.90;;;;;;6158385;23;20261;-95
2023/05/11 09:19:16;;;;;;;6.75;4.43;;;21.30;99.90;;;;;;6160333;23;20222;-96
2023/05/11 09:21:43;;;;;;;6.85;4.13;;;21.20;99.90;;;;;;6158447;23;20202;-96
2023/05/11 09:24:12;;;;;;;9.73;4.30;;;21.20;99.90;;;;;;6160765;23;20174;-96
2023/05/11 09:26:39;;;;;;;5.32;4.00;;;21.20;99.90;;;;;;6158904;23;20181;-95
2023/05/11 09:29:07;;;;;;;6.55;4.00;;;21.10;99.90;;;;;;6159045;23;20586;-96
2023/05/11 09:31:38;;;;;;;9.23;3.97;;;21.10;99.90;;;;;;6158342;23;20181;-94
2023/05/11 09:34:13;;;;;;;8.35;4.28;;;21.10;99.90;;;;;;6159005;23;20163;-96
2023/05/11 09:36:40;;;;;;;7.72;4.10;;;21.20;99.90;;;;;;6158767;23;20154;-96
2023/05/11 09:39:07;;;;;;;8.25;4.20;;;21.20;99.90;;;;;;6158313;23;20221;-94
2023/05/11 09:41:35;;;;;;;7.57;4.55;;;21.20;99.90;;;;;;6158040;23;20170;-95
2023/05/11 09:44:10;;;;;;;8.75;4.53;;;21.30;99.90;;;;;;6158172;23;20554;-95
2023/05/11 09:46:38;;;;;;;5.90;4.00;;;21.30;99.90;;;;;;6158290;23;20159;-95
2023/05/11 09:49:05;;;;;;;9.05;3.67;;;21.40;99.90;;;;;;6157629;23;20190;-94
2023/05/11 09:51:34;;;;;;;5.13;4.07;;;21.40;99.90;;;;;;6157854;23;20166;-95
2023/05/11 09:54:03;;;;;;;7.40;4.03;;;21.40;99.90;;;;;;6157606;23;20207;-94
2023/05/11 09:56:46;;;;;;;5.25;4.18;;;21.40;99.90;;;;;;6158516;23;20174;-95
2023/05/11 09:59:17;;;;;;;9.48;3.80;;;21.50;99.90;;;;;;6158746;23;20170;-94
2023/05/11 10:01:44;;;;;;;8.07;3.95;;;21.60;99.90;;;;;;6158120;23;20233;-94
2023/05/11 10:04:11;;;;;;;7.00;4.03;;;21.60;99.90;;;;;;6158038;23;20174;-96
2023/05/11 10:06:45;;;;;;;8.40;4.00;;;21.70;99.90;;;;;;6158215;23;20543;-94
2023/05/11 10:09:14;;;;;;;6.90;3.78;;;21.80;99.90;;;;;;6157501;23;20682;-96
2023/05/11 10:11:44;;;;;;;9.15;4.03;;;21.80;99.90;;;;;;6159114;23;20170;-95
2023/05/11 10:14:12;;;;;;;6.38;3.22;;;21.80;99.90;;;;;;6158130;23;20174;-95
2023/05/11 10:16:42;;;;;;;9.40;4.57;;;21.90;99.90;;;;;;6157786;23;20517;-94
2023/05/11 10:19:08;;;;;;;13.57;3.90;;;22.00;99.90;;;;;;6157570;23;20229;-96
2023/05/11 10:21:35;;;;;;;6.97;3.83;;;22.10;99.90;;;;;;6157626;23;20202;-95
2023/05/11 10:24:03;;;;;;;7.13;3.72;;;22.20;99.50;;;;;;6157792;23;20508;-94
2023/05/11 10:26:31;;;;;;;7.18;3.50;;;22.30;99.50;;;;;;6157436;23;20232;-95
2023/05/11 10:29:00;;;;;;;4.30;3.50;;;22.30;98.00;;;;;;6157404;23;20244;-94
2023/05/11 10:31:26;;;;;;;5.70;5.15;;;22.40;97.20;;;;;;6157939;23;20192;-94
2023/05/11 10:33:56;;;;;;;10.02;4.22;;;22.50;97.10;;;;;;6157610;23;20170;-96
2023/05/11 10:36:24;;;;;;;9.10;3.85;;;22.60;97.00;;;;;;6157952;23;20535;-96
2023/05/11 10:38:51;;;;;;;7.78;4.03;;;22.70;97.50;;;;;;6157668;23;20499;-94
2023/05/11 10:41:41;;;;;;;8.48;3.45;;;22.80;92.80;;;;;;6157767;23;20194;-94
2023/05/11 10:44:50;;;;;;;7.63;3.15;;;22.80;96.60;;;;;;6139838;23;20181;-94
2023/05/11 10:47:56;;;;;;;6.97;3.60;;;22.90;95.80;;;;;;6039103;23;20177;-95
2023/05/11 10:50:42;;;;;;;5.47;3.45;;;22.90;94.30;;;;;;5946768;24;20284;-96
2023/05/11 10:53:25;;;;;;;5.38;3.50;;;22.80;92.40;;;;;;5954946;24;20175;-95
2023/05/11 10:56:11;;;;;;;6.45;3.90;;;22.70;92.20;;;;;;5954715;24;20181;-95
2023/05/11 10:58:59;;;;;;;6.25;3.80;;;22.60;92.40;;;;;;5954441;24;20163;-93
2023/05/11 11:01:36;;;;;;;6.50;3.88;;;22.70;92.40;;;;;;5954833;24;20185;-96
2023/05/11 11:04:05;;;;;;;7.50;3.70;;;23.00;92.60;;;;;;5956093;24;20618;-96
2023/05/11 11:06:35;;;;;;;7.85;3.88;;;23.10;92.10;;;;;;5954593;24;20191;-95
2023/05/11 11:09:04;;;;;;;7.78;4.30;;;23.10;91.10;;;;;;5954474;24;20195;-94
2023/05/11 11:11:32;;;;;;;6.47;3.88;;;23.10;90.80;;;;;;5954712;24;20236;-94
2023/05/11 11:14:02;;;;;;;6.43;3.85;;;23.10;90.60;;;;;;5954334;24;20175;-93
2023/05/11 11:16:29;;;;;;;8.80;4.25;;;23.10;91.60;;;;;;5954835;24;20285;-94
2023/05/11 11:19:33;;;;;;;8.95;4.40;;;23.10;99.90;;;;;;5954567;24;20179;-94
2023/05/11 11:22:02;;;;;;;7.30;4.50;;;23.10;90.20;;;;;;6022787;23;20201;-94
2023/05/11 11:24:46;;;;;;;5.57;4.10;;;23.10;89.80;;;;;;6038410;23;20635;-94
2023/05/11 11:27:13;;;;;;;8.52;4.03;;;23.20;90.00;;;;;;6074300;23;20170;-93
2023/05/11 11:29:40;;;;;;;8.48;4.18;;;23.30;87.50;;;;;;6157171;23;20522;-94
2023/05/11 11:32:25;;;;;;;7.10;3.92;;;23.40;88.30;;;;;;6157531;23;20170;-93
2023/05/11 11:34:52;;;;;;;7.30;3.90;;;23.50;83.50;;;;;;6157237;23;20237;-94
2023/05/11 11:37:22;;;;;;;9.10;4.07;;;23.50;83.70;;;;;;6157269;23;20194;-94
2023/05/11 11:40:00;;;;;;;9.38;4.30;;;23.50;81.40;;;;;;6157241;23;20205;-95
2023/05/11 11:42:37;;;;;;;5.72;4.10;;;23.50;99.30;;;;;;6156905;23;20540;-93
2023/05/11 11:45:31;;;;;;;12.38;4.45;;;23.60;80.70;;;;;;6157054;23;20241;-92
2023/05/11 11:48:08;;;;;;;9.73;4.20;;;23.60;82.90;;;;;;6157025;23;20230;-94
2023/05/11 11:50:35;;;;;;;7.20;4.40;;;23.80;81.80;;;;;;6157134;23;20630;-94
2023/05/11 11:53:04;;;;;;;12.80;4.32;;;23.90;76.40;;;;;;6157631;23;20233;-94
2023/05/11 11:55:50;;;;;;;12.23;4.97;;;23.70;70.70;;;;;;6157139;23;20171;-94
2023/05/11 11:58:54;;;;;;;11.27;4.43;;;23.30;70.50;;;;;;6157053;23;20166;-95
2023/05/11 12:01:24;;;;;;;12.07;4.05;;;23.10;69.80;;;;;;6157300;23;20249;-95
2023/05/11 12:04:15;;;;;;;11.07;4.00;;;22.90;69.80;;;;;;6157778;23;20201;-96
2023/05/11 12:06:43;;;;;;;8.95;4.13;;;22.80;70.80;;;;;;6038550;23;20636;-96
2023/05/11 12:09:17;;;;;;;7.45;4.03;;;23.10;70.10;;;;;;6038802;23;20254;-96
2023/05/11 12:11:46;;;;;;;4.40;3.45;;;23.20;69.00;;;;;;6038879;23;20176;-96
2023/05/11 12:14:13;;;;;;;7.55;3.78;;;23.40;68.90;;;;;;6040754;23;20178;-96
2023/05/11 12:16:40;;;;;;;10.30;4.15;;;23.50;66.40;;;;;;6040578;23;20165;-96
2023/05/11 12:19:06;;;;;;;4.75;4.03;;;23.50;65.00;;;;;;6040772;23;20176;-96
2023/05/11 12:21:33;;;;;;;5.13;3.80;;;23.40;64.90;;;;;;6040399;23;20205;-96
2023/05/11 12:24:01;;;;;;;6.30;3.83;;;23.50;64.20;;;;;;6041077;23;20531;-96
2023/05/11 12:26:31;;;;;;;5.00;3.53;;;23.60;63.50;;;;;;6041126;23;20215;-96
2023/05/11 12:29:17;;;;;;;4.95;3.40;;;23.50;62.20;;;;;;6043494;23;20256;-96
2023/05/11 12:31:45;;;;;;;6.72;3.78;;;23.60;61.90;;;;;;6041223;23;20177;-96
2023/05/11 12:34:15;;;;;;;5.53;4.28;;;23.90;64.00;;;;;;6040810;23;20273;-94
2023/05/11 12:36:42;;;;;;;4.78;3.20;;;24.10;62.20;;;;;;6040391;23;20177;-96
2023/05/11 12:39:16;;;;;;;5.45;3.20;;;24.20;57.20;;;;;;6040336;23;20173;-94
2023/05/11 12:41:46;;;;;;;4.95;3.25;;;24.40;60.10;;;;;;6040286;23;20185;-94
2023/05/11 12:44:15;;;;;;;5.55;3.40;;;24.70;59.20;;;;;;6114509;23;20177;-96
2023/05/11 12:46:42;;;;;;;8.02;3.75;;;25.00;57.30;;;;;;6159033;23;20167;-96
2023/05/11 12:49:12;;;;;;;6.40;3.40;;;25.20;54.90;;;;;;6159085;23;20198;-92
2023/05/11 12:51:49;;;;;;;4.38;3.33;;;25.30;53.50;;;;;;6158424;23;20209;-93
2023/05/11 12:54:32;;;;;;;6.55;3.53;;;25.50;55.30;;;;;;6162551;23;20232;-96
2023/05/11 12:57:02;;;;;;;5.05;3.13;;;25.60;52.70;;;;;;6158764;23;20166;-94